createdAt,value
2019-03-10T00:02:37.148Z,96783.19
2019-03-10T00:05:45.589Z,96786.53
2019-03-10T00:08:14.361Z,96789.11
2019-03-10T00:11:02.163Z,96784.98
2019-03-10T00:13:30.860Z,96783.46
2019-03-10T00:16:18.869Z,96771.14
2019-03-10T00:19:06.872Z,96779.84
2019-03-10T00:21:35.633Z,96764.44
2019-03-10T00:24:04.325Z,96768.30
2019-03-10T00:26:32.999Z,96772.92
2019-03-10T00:29:01.806Z,96755.17
2019-03-10T00:31:30.503Z,96750.80
2019-03-10T00:33:59.206Z,96745.66
2019-03-10T00:36:47.251Z,96747.19
2019-03-10T00:39:55.736Z,96738.20
2019-03-10T00:43:04.293Z,96737.89
2019-03-10T00:46:11.427Z,96729.69
2019-03-10T00:49:18.560Z,96724.03
2019-03-10T00:55:01.843Z,96701.19
2019-03-10T00:57:49.776Z,96686.76
2019-03-10T01:00:58.200Z,96693.70
2019-03-10T01:03:46.019Z,96700.35
2019-03-10T01:06:14.671Z,96693.64
2019-03-10T01:09:02.588Z,96698.05
2019-03-10T01:11:50.373Z,96702.92
2019-03-10T01:14:38.200Z,96693.64
2019-03-10T01:20:54.786Z,96689.27
2019-03-10T01:26:18.371Z,96670.50
2019-03-10T01:28:47.083Z,96658.38
2019-03-10T01:31:54.242Z,96651.25
2019-03-10T01:35:01.498Z,96643.03
2019-03-10T01:37:30.208Z,96628.91
2019-03-10T01:39:58.902Z,96634.00
2019-03-10T01:42:46.708Z,96640.96
2019-03-10T01:45:15.386Z,96635.53
2019-03-10T01:48:03.199Z,96641.66
2019-03-10T01:50:31.877Z,96641.88
2019-03-10T01:53:00.541Z,96637.52
2019-03-10T01:55:48.416Z,96621.84
2019-03-10T01:58:17.109Z,96615.17
2019-03-10T02:01:05.132Z,96607.48
2019-03-10T02:06:21.529Z,96594.37
2019-03-10T02:08:50.165Z,96581.56
2019-03-10T02:14:14.337Z,96573.61
2019-03-10T02:16:44.712Z,96574.62
2019-03-10T02:19:13.355Z,96557.70
2019-03-10T02:21:42.114Z,96546.20
2019-03-10T02:24:29.917Z,96543.41
2019-03-10T02:27:17.652Z,96536.73
2019-03-10T02:30:05.751Z,96519.79
2019-03-10T02:32:36.045Z,96517.50
2019-03-10T02:35:44.481Z,96516.23
2019-03-10T02:38:32.493Z,96510.31
2019-03-10T02:41:20.347Z,96505.98
2019-03-10T02:43:49.041Z,96497.73
2019-03-10T02:46:17.689Z,96489.53
2019-03-10T02:48:47.213Z,96480.05
2019-03-10T02:51:17.688Z,96478.78
2019-03-10T02:54:05.590Z,96475.17
2019-03-10T02:56:46.701Z,96473.91
2019-03-10T02:59:15.447Z,96472.34
2019-03-10T03:02:03.681Z,96461.08
2019-03-10T03:04:32.416Z,96457.23
2019-03-10T03:07:01.098Z,96451.84
2019-03-10T03:12:36.912Z,96439.24
2019-03-10T03:15:45.408Z,96424.12
2019-03-10T03:21:26.682Z,96422.58
2019-03-10T03:24:14.632Z,96400.74
2019-03-10T03:26:43.316Z,96392.03
2019-03-10T03:29:12.160Z,96391.77
2019-03-10T03:31:59.956Z,96386.88
2019-03-10T03:34:47.897Z,96378.94
2019-03-10T03:37:35.981Z,96379.97
2019-03-10T03:40:44.564Z,96373.05
2019-03-10T03:43:13.276Z,96357.39
2019-03-10T03:46:02.792Z,96354.30
2019-03-10T03:48:50.608Z,96364.81
2019-03-10T03:51:38.470Z,96385.36
2019-03-10T03:54:07.281Z,96369.70
2019-03-10T03:56:55.172Z,96388.64
2019-03-10T03:59:42.919Z,96381.41
2019-03-10T04:02:49.938Z,96378.20
2019-03-10T04:05:18.612Z,96374.80
2019-03-10T04:08:06.565Z,96367.62
2019-03-10T04:10:35.392Z,96361.63
2019-03-10T04:13:04.025Z,96359.00
2019-03-10T04:15:51.998Z,96343.86
2019-03-10T04:18:20.555Z,96344.59
2019-03-10T04:20:49.208Z,96333.56
2019-03-10T04:23:17.888Z,96324.61
2019-03-10T04:26:05.587Z,96323.59
2019-03-10T04:28:53.457Z,96310.73
2019-03-10T04:31:41.358Z,96316.89
2019-03-10T04:34:29.104Z,96302.06
2019-03-10T04:36:57.712Z,96303.30
2019-03-10T04:39:45.618Z,96299.69
2019-03-10T04:42:33.496Z,96296.36
2019-03-10T04:45:21.371Z,96297.34
2019-03-10T04:50:40.749Z,96280.96
2019-03-10T04:53:28.671Z,96277.34
2019-03-10T04:56:16.480Z,96258.92
2019-03-10T04:59:04.181Z,96240.48
2019-03-10T05:01:52.147Z,96237.14
2019-03-10T05:04:39.995Z,96226.39
2019-03-10T05:07:27.833Z,96221.02
2019-03-10T05:10:15.738Z,96205.93
2019-03-10T05:12:44.402Z,96200.56
2019-03-10T05:15:32.225Z,96196.72
2019-03-10T05:18:00.884Z,96186.50
2019-03-10T05:20:48.770Z,96183.95
2019-03-10T05:24:00.164Z,96175.49
2019-03-10T05:29:23.565Z,96143.53
2019-03-10T05:31:52.198Z,96145.59
2019-03-10T05:34:20.819Z,96125.89
2019-03-10T05:37:08.675Z,96127.92
2019-03-10T05:39:56.616Z,96125.34
2019-03-10T05:42:44.640Z,96127.93
2019-03-10T05:45:33.280Z,96115.64
2019-03-10T05:48:02.149Z,96110.04
2019-03-10T05:50:30.784Z,96104.92
2019-03-10T05:53:39.273Z,96089.10
2019-03-10T05:56:07.907Z,96087.31
2019-03-10T05:58:37.270Z,96087.30
2019-03-10T06:01:06.002Z,96049.69
2019-03-10T06:03:34.592Z,96062.23
2019-03-10T06:06:22.460Z,96054.56
2019-03-10T06:08:51.163Z,96069.42
2019-03-10T06:11:19.812Z,96049.20
2019-03-10T06:14:08.002Z,96024.41
2019-03-10T06:16:36.674Z,96020.31
2019-03-10T06:19:24.604Z,96009.33
2019-03-10T06:22:12.513Z,95998.82
2019-03-10T06:25:00.421Z,96013.66
2019-03-10T06:27:48.306Z,96015.45
2019-03-10T06:30:36.274Z,96016.47
2019-03-10T06:33:04.948Z,96010.61
2019-03-10T06:35:52.828Z,96010.36
2019-03-10T06:38:21.480Z,96011.38
2019-03-10T06:40:50.169Z,96024.15
2019-03-10T06:43:58.620Z,96021.06
2019-03-10T06:46:46.477Z,96017.23
2019-03-10T06:49:34.298Z,96021.59
2019-03-10T06:52:22.243Z,96023.39
2019-03-10T06:55:10.161Z,96010.61
2019-03-10T06:57:38.848Z,96001.14
2019-03-10T07:00:26.814Z,95977.63
2019-03-10T07:02:55.459Z,95979.41
2019-03-10T07:05:43.209Z,95978.13
2019-03-10T07:08:11.722Z,95967.38
2019-03-10T07:10:59.651Z,95967.39
2019-03-10T07:13:47.493Z,95944.09
2019-03-10T07:16:35.417Z,95934.12
2019-03-10T07:19:23.365Z,95928.49
2019-03-10T07:22:11.268Z,95930.55
2019-03-10T07:24:59.133Z,95931.59
2019-03-10T07:28:06.177Z,95931.08
2019-03-10T07:33:48.512Z,95941.53
2019-03-10T07:36:55.505Z,95942.30
2019-03-10T07:42:51.714Z,95946.14
2019-03-10T07:45:39.535Z,95947.13
2019-03-10T07:48:27.245Z,95931.95
2019-03-10T07:51:34.158Z,95946.30
2019-03-10T07:57:11.209Z,95933.67
2019-03-10T08:00:18.158Z,95927.23
2019-03-10T08:06:00.921Z,95925.63
2019-03-10T08:08:48.743Z,95920.21
2019-03-10T08:11:55.703Z,95933.22
2019-03-10T08:15:02.713Z,95930.10
2019-03-10T08:20:58.859Z,95928.17
2019-03-10T08:23:46.666Z,95925.28
2019-03-10T08:26:53.652Z,95922.88
2019-03-10T08:33:09.051Z,95936.13
2019-03-10T08:39:05.266Z,95943.70
2019-03-10T08:47:17.750Z,95956.69
2019-03-10T08:50:24.648Z,95950.73
2019-03-10T08:53:12.519Z,95953.30
2019-03-10T08:56:00.420Z,95948.39
2019-03-10T09:01:23.613Z,95954.81
2019-03-10T09:04:11.406Z,95941.39
2019-03-10T09:06:59.215Z,95936.32
2019-03-10T09:10:06.274Z,95933.20
2019-03-10T09:15:37.198Z,95925.97
2019-03-10T09:18:44.308Z,95920.03
2019-03-10T09:21:32.030Z,95918.22
2019-03-10T09:24:39.042Z,95914.90
2019-03-10T09:27:45.993Z,95919.05
2019-03-10T09:30:53.211Z,95917.45
2019-03-10T09:34:00.398Z,95909.72
2019-03-10T09:37:07.534Z,95905.04
2019-03-10T09:40:14.520Z,95900.09
2019-03-10T09:43:21.875Z,95892.10
2019-03-10T09:46:28.889Z,95887.13
2019-03-10T09:49:37.473Z,95878.27
2019-03-10T09:52:25.244Z,95876.73
2019-03-10T09:55:13.429Z,95901.60
2019-03-10T10:00:41.382Z,95882.05
2019-03-10T10:03:30.083Z,95881.52
2019-03-10T10:09:15.921Z,95895.36
2019-03-10T10:12:13.058Z,95884.64
2019-03-10T10:15:14.537Z,95891.08
2019-03-10T10:20:38.633Z,95884.23
2019-03-10T10:23:26.453Z,95890.13
2019-03-10T10:26:14.496Z,95902.77
2019-03-10T10:29:21.747Z,95870.02
2019-03-10T10:32:30.212Z,95872.35
2019-03-10T10:35:37.481Z,95874.95
2019-03-10T10:38:46.040Z,95869.94
2019-03-10T10:41:33.856Z,95872.41
2019-03-10T10:44:21.773Z,95874.34
2019-03-10T10:47:09.639Z,95874.28
2019-03-10T10:50:16.708Z,95854.45
2019-03-10T10:53:04.586Z,95869.05
2019-03-10T10:55:52.450Z,95864.61
2019-03-10T10:58:59.654Z,95848.38
2019-03-10T11:02:08.304Z,95852.63
2019-03-10T11:05:15.242Z,95843.02
2019-03-10T11:08:24.109Z,95848.09
2019-03-10T11:11:32.932Z,95839.42
2019-03-10T11:17:29.310Z,95830.17
2019-03-10T11:20:36.354Z,95834.34
2019-03-10T11:28:56.226Z,95834.25
2019-03-10T11:31:44.043Z,95839.03
2019-03-10T11:34:31.858Z,95824.98
2019-03-10T11:37:38.933Z,95830.39
2019-03-10T11:40:47.397Z,95811.37
2019-03-10T11:43:35.172Z,95813.19
2019-03-10T11:46:42.335Z,95808.25
2019-03-10T11:49:49.720Z,95795.58
2019-03-10T11:55:47.362Z,95794.20
2019-03-10T11:58:35.381Z,95795.14
2019-03-10T12:04:37.507Z,95776.92
2019-03-10T12:07:25.410Z,95760.11
2019-03-10T12:10:13.237Z,95761.49
2019-03-10T12:15:35.737Z,95749.59
2019-03-10T12:18:04.408Z,95747.27
2019-03-10T12:20:33.155Z,95756.48
2019-03-10T12:23:01.978Z,95759.93
2019-03-10T12:25:30.638Z,95745.19
2019-03-10T12:28:18.640Z,95745.27
2019-03-10T12:33:21.978Z,95761.75
2019-03-10T12:36:10.000Z,95737.05
2019-03-10T12:41:26.453Z,95740.05
2019-03-10T12:46:29.362Z,95761.03
2019-03-10T12:48:58.024Z,95753.44
2019-03-10T12:51:26.825Z,95753.63
2019-03-10T12:53:55.767Z,95754.42
2019-03-10T12:56:43.636Z,95759.66
2019-03-10T12:59:31.590Z,95731.20
2019-03-10T13:02:19.548Z,95733.27
2019-03-10T13:04:48.273Z,95737.95
2019-03-10T13:07:16.971Z,95727.41
2019-03-10T13:09:45.877Z,95739.93
2019-03-10T13:12:33.847Z,95760.73
2019-03-10T13:17:36.499Z,95773.35
2019-03-10T13:20:44.939Z,95759.19
2019-03-10T13:25:49.147Z,95757.06
2019-03-10T13:28:37.154Z,95787.09
2019-03-10T13:31:25.104Z,95743.57
2019-03-10T13:33:53.892Z,95769.72
2019-03-10T13:36:41.872Z,95757.09
2019-03-10T13:39:29.846Z,95773.72
2019-03-10T13:41:58.551Z,95794.58
2019-03-10T13:44:27.357Z,95805.64
2019-03-10T13:46:56.409Z,95821.06
2019-03-10T13:49:25.060Z,95833.29
2019-03-10T13:51:53.863Z,95816.72
2019-03-10T13:54:22.643Z,95829.75
2019-03-10T13:56:51.557Z,95844.17
2019-03-10T13:59:20.385Z,95841.91
2019-03-10T14:01:49.139Z,95827.11
2019-03-10T14:07:05.423Z,95821.34
2019-03-10T14:09:53.461Z,95822.04
2019-03-10T14:12:22.155Z,95824.32
2019-03-10T14:15:10.149Z,95823.71
2019-03-10T14:17:39.049Z,95908.89
2019-03-10T14:20:47.550Z,95842.45
2019-03-10T14:23:35.493Z,95826.28
2019-03-10T14:28:38.475Z,95850.46
2019-03-10T14:31:07.205Z,95879.02
2019-03-10T14:33:36.073Z,95885.48
2019-03-10T14:36:04.748Z,95884.73
2019-03-10T14:38:52.714Z,95891.23
2019-03-10T14:44:09.307Z,95869.90
2019-03-10T14:46:38.111Z,95885.41
2019-03-10T14:49:06.740Z,95881.22
2019-03-10T14:51:35.537Z,95881.00
2019-03-10T14:54:23.663Z,95885.81
2019-03-10T14:57:11.698Z,95916.58
2019-03-10T14:59:40.537Z,95916.44
2019-03-10T15:02:48.946Z,95894.90
2019-03-10T15:08:10.889Z,95907.15
2019-03-10T15:10:58.716Z,95903.09
2019-03-10T15:13:27.598Z,95904.15
2019-03-10T15:15:56.292Z,95940.54
2019-03-10T15:20:59.715Z,95917.94
2019-03-10T15:26:16.205Z,95925.56
2019-03-10T15:28:44.874Z,95937.34
2019-03-10T15:31:13.701Z,95963.67
2019-03-10T15:34:01.668Z,95967.17
2019-03-10T15:36:49.619Z,95975.31
2019-03-10T15:42:53.072Z,95963.13
2019-03-10T15:45:41.100Z,95969.97
2019-03-10T15:48:10.050Z,95979.32
2019-03-10T15:51:18.635Z,95952.89
2019-03-10T15:54:06.430Z,95995.62
2019-03-10T15:56:35.213Z,96046.05
2019-03-10T15:59:04.099Z,96013.98
2019-03-10T16:01:51.953Z,96015.83
2019-03-10T16:05:00.427Z,96018.52
2019-03-10T16:07:29.204Z,96041.42
2019-03-10T16:10:17.070Z,96039.48
2019-03-10T16:13:04.976Z,96028.94
2019-03-10T16:15:33.944Z,96114.52
2019-03-10T16:18:21.827Z,96083.45
2019-03-10T16:24:03.525Z,96076.60
2019-03-10T16:26:32.265Z,96092.66
2019-03-10T16:31:35.768Z,96087.28
2019-03-10T16:34:04.471Z,96100.78
2019-03-10T16:36:52.511Z,96097.05
2019-03-10T16:39:40.622Z,96093.64
2019-03-10T16:42:09.399Z,96111.23
2019-03-10T16:44:57.331Z,96102.11
2019-03-10T16:47:26.047Z,96113.94
2019-03-10T16:49:54.936Z,96123.48
2019-03-10T16:52:42.748Z,96154.47
2019-03-10T16:56:02.085Z,96145.70
2019-03-10T16:58:21.955Z,96147.26
2019-03-10T17:00:57.741Z,96129.64
2019-03-10T17:03:45.839Z,96143.28
2019-03-10T17:06:14.814Z,96167.07
2019-03-10T17:09:04.687Z,96188.90
2019-03-10T17:11:33.351Z,96187.91
2019-03-10T17:14:21.292Z,96176.16
2019-03-10T17:22:43.021Z,96186.89
2019-03-10T17:25:51.559Z,96235.99
2019-03-10T17:28:39.488Z,96216.23
2019-03-10T17:33:56.006Z,96205.00
2019-03-10T17:36:25.008Z,96235.67
2019-03-10T17:42:07.058Z,96230.89
2019-03-10T17:44:41.152Z,96256.91
2019-03-10T17:47:06.879Z,96264.11
2019-03-10T17:49:55.153Z,96256.19
2019-03-10T17:52:43.467Z,96286.30
2019-03-10T17:55:52.088Z,96288.81
2019-03-10T17:58:40.156Z,96288.61
2019-03-10T18:04:08.123Z,96297.15
2019-03-10T18:06:56.355Z,96302.57
2019-03-10T18:09:25.267Z,96286.66
2019-03-10T18:12:13.500Z,96306.95
2019-03-10T18:14:42.595Z,96296.16
2019-03-10T18:20:58.732Z,96302.61
2019-03-10T18:23:27.972Z,96295.93
2019-03-10T18:29:05.765Z,96290.23
2019-03-10T18:31:34.639Z,96304.64
2019-03-10T18:34:22.718Z,96299.75
2019-03-10T18:37:10.715Z,96337.78
2019-03-10T18:39:39.710Z,96310.81
2019-03-10T18:42:08.555Z,96332.64
2019-03-10T18:44:56.915Z,96333.45
2019-03-10T18:47:27.459Z,96345.80
2019-03-10T18:50:35.588Z,96363.80
2019-03-10T18:53:04.645Z,96380.23
2019-03-10T18:55:33.582Z,96361.23
2019-03-10T18:58:02.505Z,96366.10
2019-03-10T19:03:25.916Z,96371.00
2019-03-10T19:14:48.488Z,96469.95
2019-03-10T19:17:36.763Z,96487.25
2019-03-10T19:20:18.328Z,96514.84
2019-03-10T19:22:59.585Z,96505.59
2019-03-10T19:25:48.214Z,96471.52
2019-03-10T19:28:18.910Z,96495.30
2019-03-10T19:31:08.570Z,96507.78
2019-03-10T19:33:57.915Z,96502.97
2019-03-10T19:36:56.584Z,96503.42
2019-03-10T19:39:36.318Z,96498.05
2019-03-10T19:42:45.121Z,96508.28
2019-03-10T19:45:33.928Z,96516.44
2019-03-10T19:51:17.352Z,96526.08
2019-03-10T19:54:05.793Z,96531.34
2019-03-10T20:00:02.558Z,96584.28
2019-03-10T20:02:50.704Z,96534.83
2019-03-10T20:17:44.463Z,96583.55
2019-03-10T20:20:53.180Z,96578.87
2019-03-10T20:35:34.910Z,96599.49
2019-03-10T20:41:16.980Z,96595.09
2019-03-10T20:58:57.298Z,96673.32
2019-03-10T21:01:45.865Z,96669.86
2019-03-10T21:04:14.765Z,96666.20
2019-03-10T21:07:23.427Z,96666.64
2019-03-10T21:09:52.194Z,96682.40
2019-03-10T21:12:20.944Z,96694.16
2019-03-10T21:14:49.877Z,96683.41
2019-03-10T21:20:25.971Z,96696.19
2019-03-10T21:22:54.660Z,96693.78
2019-03-10T21:26:03.344Z,96681.70
2019-03-10T21:28:32.324Z,96726.08
2019-03-10T21:31:03.029Z,96700.80
2019-03-10T21:33:51.186Z,96708.19
2019-03-10T21:36:20.066Z,96717.99
2019-03-10T21:38:48.972Z,96717.67
2019-03-10T21:41:37.094Z,96719.67
2019-03-10T21:44:05.864Z,96729.41
2019-03-10T21:46:34.547Z,96727.12
2019-03-10T21:49:22.367Z,96733.25
2019-03-10T21:51:51.142Z,96750.02
2019-03-10T21:54:39.102Z,96755.89
2019-03-10T21:57:07.789Z,96756.75
2019-03-10T21:59:36.534Z,96751.42
2019-03-10T22:04:38.982Z,96749.14
2019-03-10T22:07:07.646Z,96756.63
2019-03-10T22:09:36.376Z,96754.27
2019-03-10T22:12:05.122Z,96779.55
2019-03-10T22:14:33.888Z,96775.34
2019-03-10T22:17:02.541Z,96775.55
2019-03-10T22:19:31.229Z,96787.56
2019-03-10T22:21:59.814Z,96802.67
2019-03-10T22:24:47.743Z,96790.72
2019-03-10T22:27:16.422Z,96818.09
2019-03-10T22:29:45.214Z,96795.25
2019-03-10T22:32:13.884Z,96803.38
2019-03-10T22:34:42.531Z,96810.48
2019-03-10T22:39:58.762Z,96807.98
2019-03-10T22:42:27.470Z,96805.64
2019-03-10T22:44:56.174Z,96811.61
2019-03-10T22:47:24.872Z,96808.70
2019-03-10T22:49:53.552Z,96806.09
2019-03-10T22:52:22.227Z,96814.75
2019-03-10T22:54:50.904Z,96830.33
2019-03-10T22:57:19.489Z,96819.58
2019-03-10T23:00:07.336Z,96821.61
2019-03-10T23:02:36.018Z,96824.31
2019-03-10T23:05:44.489Z,96847.06
2019-03-10T23:08:13.132Z,96840.90
2019-03-10T23:13:16.473Z,96845.70
2019-03-10T23:18:52.097Z,96849.89
2019-03-10T23:21:20.693Z,96845.94
2019-03-10T23:24:08.505Z,96831.95
2019-03-10T23:26:37.168Z,96844.33
2019-03-10T23:29:05.848Z,96854.39
2019-03-10T23:31:53.682Z,96836.25
2019-03-10T23:34:22.331Z,96859.31
2019-03-10T23:36:50.971Z,96856.16
2019-03-10T23:39:19.805Z,96860.04
2019-03-10T23:42:07.781Z,96858.67
2019-03-10T23:44:55.602Z,96858.55
2019-03-10T23:47:43.487Z,96859.09
2019-03-10T23:50:51.973Z,96866.91
2019-03-10T23:53:39.785Z,96874.02
2019-03-10T23:56:27.647Z,96875.08
2019-03-10T23:59:15.490Z,96876.55
